Time;durP1;ratioP1;P1;durP2;ratioP2;P2;SDS_P1;SDS_P2;PMS_P1;PMS_P2;Temp;Humidity;BMP_temperature;BMP_pressure;BME280_temperature;BME280_humidity;BME280_pressure;Samples;Min_cycle;Max_cycle;Signal;HPM_P1;HPM_P2
2021/04/03 00:00:21;;;;;;;12.68;8.45;;;13.40;99.90;;;;;;4978335;28;20030;-76
2021/04/03 00:02:47;;;;;;;13.27;8.30;;;13.40;99.90;;;;;;4995965;28;20081;-75
2021/04/03 00:05:14;;;;;;;13.73;8.32;;;13.40;99.90;;;;;;4995367;28;20125;-77
2021/04/03 00:07:40;;;;;;;10.57;7.97;;;13.40;99.90;;;;;;4995812;28;20045;-77
2021/04/03 00:10:13;;;;;;;12.05;8.07;;;12.80;99.90;;;;;;4995862;28;20113;-76
2021/04/03 00:12:39;;;;;;;12.82;8.52;;;12.80;99.90;;;;;;5005757;28;20045;-78
2021/04/03 00:15:06;;;;;;;14.40;8.38;;;12.90;99.90;;;;;;5015161;28;20026;-77
2021/04/03 00:17:32;;;;;;;12.73;8.40;;;13.20;99.90;;;;;;5015227;28;20022;-77
2021/04/03 00:19:57;;;;;;;12.48;6.72;;;13.20;99.90;;;;;;5014846;28;20025;-78
2021/04/03 00:22:23;;;;;;;13.95;7.97;;;13.40;99.90;;;;;;5015006;28;20049;-77
2021/04/03 00:24:49;;;;;;;13.75;8.40;;;13.50;99.90;;;;;;5014797;28;20033;-73
2021/04/03 00:27:16;;;;;;;12.73;8.23;;;13.50;99.90;;;;;;5014911;28;20042;-75
2021/04/03 00:29:42;;;;;;;11.52;8.30;;;13.40;99.90;;;;;;5014980;28;20097;-75
2021/04/03 00:32:08;;;;;;;11.23;7.72;;;13.50;99.90;;;;;;4997185;28;20029;-75
2021/04/03 00:34:34;;;;;;;10.57;7.80;;;13.50;99.90;;;;;;5014468;28;20385;-74
2021/04/03 00:37:00;;;;;;;11.25;8.10;;;13.30;99.90;;;;;;5014658;28;20476;-75
2021/04/03 00:39:25;;;;;;;12.32;8.07;;;13.10;99.90;;;;;;5015138;28;20085;-75
2021/04/03 00:41:51;;;;;;;11.23;8.07;;;13.30;99.90;;;;;;5014437;28;20073;-77
2021/04/03 00:44:17;;;;;;;10.80;7.70;;;13.30;99.90;;;;;;5014796;28;20112;-77
2021/04/03 00:46:43;;;;;;;14.43;8.68;;;13.40;99.90;;;;;;5014734;28;20033;-78
2021/04/03 00:49:08;;;;;;;10.77;7.72;;;13.20;99.90;;;;;;5005535;28;20532;-76
2021/04/03 00:51:34;;;;;;;14.52;9.18;;;13.20;99.90;;;;;;4994853;28;20026;-74
2021/04/03 00:54:01;;;;;;;13.45;8.27;;;12.70;99.90;;;;;;4995080;28;20050;-75
2021/04/03 00:56:27;;;;;;;13.35;8.10;;;12.80;99.90;;;;;;4995231;28;20042;-77
2021/04/03 00:58:54;;;;;;;13.38;8.30;;;12.60;99.90;;;;;;4995128;28;20026;-75
2021/04/03 01:01:20;;;;;;;12.30;8.00;;;12.80;99.90;;;;;;4994465;28;20410;-76
2021/04/03 01:03:46;;;;;;;13.23;9.05;;;12.70;99.90;;;;;;4994516;28;20026;-75
2021/04/03 01:06:12;;;;;;;14.25;8.43;;;12.90;99.90;;;;;;4994436;28;20038;-78
2021/04/03 01:08:38;;;;;;;13.40;8.07;;;13.00;99.90;;;;;;4994840;28;20486;-78
2021/04/03 01:11:05;;;;;;;14.20;8.52;;;13.30;99.90;;;;;;4994530;28;20525;-78
2021/04/03 01:14:06;;;;;;;13.50;8.55;;;13.40;99.90;;;;;;5009796;28;20397;-78
2021/04/03 01:16:48;;;;;;;15.63;8.80;;;13.20;99.90;;;;;;4969796;28;20120;-76
2021/04/03 01:19:49;;;;;;;14.00;8.15;;;13.20;99.90;;;;;;5014139;28;20026;-77
2021/04/03 01:22:54;;;;;;;14.27;8.40;;;13.20;99.90;;;;;;5014142;28;20382;-76
2021/04/03 01:25:47;;;;;;;10.55;7.68;;;13.10;99.90;;;;;;5014028;28;20088;-77
2021/04/03 01:28:27;;;;;;;13.77;8.55;;;13.00;99.90;;;;;;5013903;28;20536;-78
2021/04/03 01:30:54;;;;;;;15.27;8.65;;;12.60;99.90;;;;;;5014056;28;20283;-77
2021/04/03 01:33:23;;;;;;;11.80;8.63;;;12.60;99.90;;;;;;5013594;28;20041;-77
2021/04/03 01:35:58;;;;;;;14.10;8.60;;;12.90;99.90;;;;;;5013693;28;20022;-76
2021/04/03 01:38:36;;;;;;;17.98;9.48;;;12.90;99.90;;;;;;5013789;28;20504;-76
2021/04/03 01:41:04;;;;;;;12.82;8.30;;;13.00;99.90;;;;;;5013633;28;20093;-75
2021/04/03 01:43:36;;;;;;;17.35;9.63;;;13.10;99.90;;;;;;4987687;28;20038;-76
2021/04/03 01:46:04;;;;;;;15.52;8.38;;;13.20;99.90;;;;;;5006696;28;20389;-75
2021/04/03 01:48:31;;;;;;;14.05;8.75;;;13.10;99.90;;;;;;5003218;28;20368;-75
2021/04/03 01:50:57;;;;;;;12.93;8.77;;;13.00;99.90;;;;;;5013536;28;20033;-76
2021/04/03 01:53:24;;;;;;;17.65;9.32;;;13.00;99.90;;;;;;5013367;28;20025;-77
2021/04/03 01:55:53;;;;;;;16.33;10.52;;;13.10;99.90;;;;;;5012286;28;20076;-75
2021/04/03 01:58:21;;;;;;;17.67;11.27;;;13.00;99.90;;;;;;5013207;28;20018;-76
2021/04/03 02:00:48;;;;;;;19.80;10.35;;;13.10;99.90;;;;;;5012847;28;20034;-76
2021/04/03 02:03:14;;;;;;;18.05;11.23;;;13.10;99.90;;;;;;5013278;28;20030;-76
2021/04/03 02:05:41;;;;;;;16.13;10.85;;;13.00;99.90;;;;;;5013241;28;20030;-75
2021/04/03 02:08:09;;;;;;;17.15;11.27;;;13.00;99.90;;;;;;5013005;28;20033;-76
2021/04/03 02:10:36;;;;;;;19.20;11.90;;;13.00;99.90;;;;;;5013310;28;20033;-75
2021/04/03 02:13:05;;;;;;;15.85;11.35;;;12.90;99.90;;;;;;5013038;28;20058;-76
2021/04/03 02:15:32;;;;;;;15.63;10.23;;;13.00;99.90;;;;;;5012345;28;20101;-77
2021/04/03 02:18:00;;;;;;;15.55;10.38;;;12.90;99.90;;;;;;5012428;28;20022;-76
2021/04/03 02:20:26;;;;;;;17.05;10.85;;;12.90;99.90;;;;;;5012905;28;20048;-76
2021/04/03 02:22:52;;;;;;;17.80;10.73;;;12.90;99.90;;;;;;5012898;28;20033;-77
2021/04/03 02:25:17;;;;;;;14.80;10.07;;;12.90;99.90;;;;;;5012904;28;20525;-76
2021/04/03 02:27:45;;;;;;;13.77;10.02;;;12.90;99.90;;;;;;5012626;28;20041;-76
2021/04/03 02:30:19;;;;;;;17.08;10.82;;;12.90;99.90;;;;;;5012438;28;20064;-76
2021/04/03 02:32:46;;;;;;;17.13;10.65;;;12.90;99.90;;;;;;5012612;28;20073;-75
2021/04/03 02:35:13;;;;;;;16.45;10.32;;;12.90;99.90;;;;;;5012610;28;20018;-76
2021/04/03 02:37:40;;;;;;;16.45;10.70;;;12.80;99.90;;;;;;5012178;28;20022;-76
2021/04/03 02:40:09;;;;;;;15.85;9.98;;;12.60;99.90;;;;;;5012451;28;20026;-75
2021/04/03 02:42:44;;;;;;;16.25;10.75;;;12.70;99.90;;;;;;5012425;28;20429;-75
2021/04/03 02:45:16;;;;;;;14.05;10.45;;;12.80;99.90;;;;;;5012516;28;20025;-75
2021/04/03 02:47:47;;;;;;;16.42;10.35;;;12.60;99.90;;;;;;5012443;28;20038;-76
2021/04/03 02:50:39;;;;;;;15.95;10.70;;;12.70;99.90;;;;;;5012203;28;20018;-77
2021/04/03 02:53:09;;;;;;;13.35;9.70;;;12.70;99.90;;;;;;5012204;28;20025;-75
2021/04/03 02:55:37;;;;;;;16.42;10.73;;;12.70;99.90;;;;;;5012079;28;20026;-76
2021/04/03 02:58:05;;;;;;;15.00;10.50;;;12.70;99.90;;;;;;5012211;28;20101;-76
2021/04/03 03:00:31;;;;;;;13.27;10.00;;;12.60;99.90;;;;;;5011945;28;20377;-77
2021/04/03 03:02:58;;;;;;;14.45;9.73;;;12.60;99.90;;;;;;5011787;28;20029;-77
2021/04/03 03:05:24;;;;;;;12.27;9.57;;;12.70;99.90;;;;;;4994887;28;20030;-76
2021/04/03 03:07:52;;;;;;;14.07;10.40;;;12.50;99.90;;;;;;5012072;28;20037;-76
2021/04/03 03:10:19;;;;;;;15.27;10.82;;;12.50;99.90;;;;;;5012024;28;20086;-75
2021/04/03 03:12:47;;;;;;;15.43;11.15;;;12.50;99.90;;;;;;5005058;28;20046;-76
2021/04/03 03:15:15;;;;;;;17.90;10.45;;;12.30;99.90;;;;;;4992456;28;20057;-75
2021/04/03 03:17:43;;;;;;;16.42;10.73;;;12.20;99.90;;;;;;4992070;28;20113;-77
2021/04/03 03:20:12;;;;;;;16.33;10.55;;;12.10;99.90;;;;;;4992538;28;20022;-77
2021/04/03 03:22:37;;;;;;;17.77;10.93;;;12.30;99.90;;;;;;4992306;28;20077;-77
2021/04/03 03:25:05;;;;;;;15.70;10.10;;;12.40;99.90;;;;;;4992145;28;20026;-77
2021/04/03 03:27:32;;;;;;;18.27;11.18;;;12.30;99.90;;;;;;4992056;28;20093;-76
2021/04/03 03:30:02;;;;;;;19.65;11.32;;;12.20;99.90;;;;;;4992342;28;20036;-75
2021/04/03 03:32:29;;;;;;;17.83;11.82;;;12.30;99.90;;;;;;4991808;28;20026;-75
2021/04/03 03:34:55;;;;;;;15.43;9.98;;;12.40;99.90;;;;;;4992241;28;20037;-76
2021/04/03 03:37:23;;;;;;;14.90;10.38;;;12.40;99.90;;;;;;4992379;28;20030;-75
2021/04/03 03:39:50;;;;;;;15.32;9.90;;;12.30;99.90;;;;;;4991809;28;20101;-75
2021/04/03 03:42:16;;;;;;;17.05;10.25;;;12.40;99.90;;;;;;4992331;28;20632;-74
2021/04/03 03:44:42;;;;;;;17.55;10.20;;;12.30;99.90;;;;;;4991873;28;20053;-75
2021/04/03 03:47:09;;;;;;;15.45;9.98;;;12.20;99.90;;;;;;4991617;28;20081;-74
2021/04/03 03:49:34;;;;;;;15.40;10.13;;;12.20;99.90;;;;;;4992070;28;20466;-73
2021/04/03 03:52:00;;;;;;;13.85;10.25;;;12.20;99.90;;;;;;4992229;28;20093;-74
2021/04/03 03:54:26;;;;;;;17.90;10.23;;;12.20;99.90;;;;;;4992005;28;20030;-75
2021/04/03 03:56:52;;;;;;;14.70;9.63;;;12.10;99.90;;;;;;4992358;28;20031;-74
2021/04/03 03:59:17;;;;;;;14.15;10.30;;;12.20;99.90;;;;;;4991835;28;20046;-74
2021/04/03 04:01:44;;;;;;;16.55;10.35;;;12.20;99.90;;;;;;4991468;28;20026;-75
2021/04/03 04:04:09;;;;;;;18.50;10.38;;;12.10;99.90;;;;;;4991801;28;20030;-74
2021/04/03 04:06:35;;;;;;;20.45;11.48;;;12.10;99.90;;;;;;4991891;28;20049;-77
2021/04/03 04:09:03;;;;;;;17.50;10.50;;;12.00;99.90;;;;;;4991999;28;20019;-75
2021/04/03 04:11:29;;;;;;;22.75;11.02;;;12.00;99.90;;;;;;4991911;28;20093;-75
2021/04/03 04:13:55;;;;;;;15.40;10.55;;;11.60;99.90;;;;;;5006104;28;20046;-75
2021/04/03 04:16:21;;;;;;;16.65;11.93;;;11.60;99.90;;;;;;5011356;28;20036;-73
2021/04/03 04:18:46;;;;;;;15.93;10.57;;;11.70;99.90;;;;;;5011157;28;20038;-73
2021/04/03 04:21:12;;;;;;;17.10;11.32;;;11.90;99.90;;;;;;5011163;28;20037;-74
2021/04/03 04:23:38;;;;;;;14.52;10.82;;;11.90;99.90;;;;;;5011329;28;20029;-74
2021/04/03 04:26:04;;;;;;;16.60;11.65;;;11.80;99.90;;;;;;5010897;28;20056;-74
2021/04/03 04:28:30;;;;;;;17.92;12.27;;;11.90;99.90;;;;;;5011525;28;20149;-75
2021/04/03 04:30:56;;;;;;;18.90;12.85;;;11.70;99.90;;;;;;5011376;28;20405;-75
2021/04/03 04:33:22;;;;;;;20.88;14.38;;;11.90;99.90;;;;;;5011278;28;20037;-75
2021/04/03 04:35:47;;;;;;;23.25;15.82;;;11.70;99.90;;;;;;5011081;28;20500;-74
2021/04/03 04:38:13;;;;;;;22.98;15.57;;;11.70;99.90;;;;;;5011240;28;20030;-73
2021/04/03 04:40:39;;;;;;;23.95;15.38;;;11.90;99.90;;;;;;5013433;28;20022;-75
2021/04/03 04:43:05;;;;;;;19.95;14.25;;;12.00;99.90;;;;;;5014801;28;20057;-76
2021/04/03 04:45:30;;;;;;;17.15;13.73;;;12.00;99.90;;;;;;5014518;28;20022;-76
2021/04/03 04:47:56;;;;;;;27.10;15.20;;;12.10;99.90;;;;;;5014589;28;20072;-77
2021/04/03 04:50:22;;;;;;;22.60;15.35;;;12.10;99.90;;;;;;5014218;28;20444;-76
2021/04/03 04:52:48;;;;;;;29.35;16.38;;;12.20;99.90;;;;;;4996961;28;20033;-74
2021/04/03 04:55:14;;;;;;;25.83;15.90;;;12.20;99.90;;;;;;5014580;28;20038;-75
2021/04/03 04:57:39;;;;;;;26.60;15.45;;;12.10;99.90;;;;;;5014287;28;20128;-75
2021/04/03 05:00:06;;;;;;;18.98;12.82;;;12.10;99.90;;;;;;5014176;28;20430;-75
2021/04/03 05:02:32;;;;;;;15.45;11.32;;;12.00;99.90;;;;;;5014145;28;20037;-73
2021/04/03 05:04:57;;;;;;;23.30;13.40;;;12.10;99.90;;;;;;5013928;28;20029;-75
2021/04/03 05:07:23;;;;;;;20.80;13.95;;;12.00;99.90;;;;;;5014186;28;20073;-76
2021/04/03 05:09:49;;;;;;;22.00;12.43;;;12.10;99.90;;;;;;4971834;28;20501;-76
2021/04/03 05:12:15;;;;;;;20.30;12.35;;;12.30;99.90;;;;;;4983778;28;20728;-73
2021/04/03 05:14:41;;;;;;;18.20;11.75;;;12.30;99.90;;;;;;4996536;28;20046;-74
2021/04/03 05:17:06;;;;;;;17.75;11.20;;;12.30;99.90;;;;;;4993955;28;20066;-74
2021/04/03 05:19:33;;;;;;;15.40;11.23;;;12.10;99.90;;;;;;4974971;28;20705;-74
2021/04/03 05:21:58;;;;;;;19.05;11.43;;;11.60;99.90;;;;;;4992944;28;20029;-75
2021/04/03 05:24:24;;;;;;;16.65;11.60;;;11.90;99.90;;;;;;4988550;28;20019;-72
2021/04/03 05:26:53;;;;;;;21.40;11.88;;;11.90;99.90;;;;;;4974325;28;20067;-76
2021/04/03 05:29:19;;;;;;;17.63;11.00;;;12.10;99.90;;;;;;4957020;28;20044;-75
2021/04/03 05:31:45;;;;;;;15.30;11.27;;;12.20;99.90;;;;;;4974213;28;20027;-76
2021/04/03 05:34:11;;;;;;;18.48;11.05;;;12.00;99.90;;;;;;4956097;28;20023;-75
2021/04/03 05:36:37;;;;;;;17.02;11.25;;;12.20;99.90;;;;;;4972380;28;20090;-78
2021/04/03 05:39:05;;;;;;;16.48;10.40;;;12.40;99.90;;;;;;4974225;28;20027;-76
2021/04/03 05:41:31;;;;;;;13.60;10.02;;;12.40;99.90;;;;;;4973362;28;20023;-75
2021/04/03 05:43:58;;;;;;;17.25;10.88;;;12.50;99.90;;;;;;4956455;28;20483;-75
2021/04/03 05:46:25;;;;;;;15.25;10.48;;;12.50;99.90;;;;;;4973222;28;20035;-78
2021/04/03 05:48:54;;;;;;;18.65;11.52;;;12.60;99.90;;;;;;4954677;28;20086;-75
2021/04/03 05:51:21;;;;;;;20.30;12.88;;;12.70;99.90;;;;;;4972315;28;20115;-77
2021/04/03 05:53:47;;;;;;;26.67;12.88;;;12.80;99.90;;;;;;4974074;28;20031;-76
2021/04/03 05:56:15;;;;;;;19.58;11.95;;;12.70;99.90;;;;;;4985174;28;20054;-77
2021/04/03 05:58:41;;;;;;;18.92;11.88;;;12.90;99.90;;;;;;4989435;28;20046;-77
2021/04/03 06:01:07;;;;;;;18.63;11.95;;;13.10;99.90;;;;;;4992730;28;20146;-73
2021/04/03 06:03:34;;;;;;;23.67;12.45;;;12.70;99.90;;;;;;4992703;28;20026;-73
2021/04/03 06:06:01;;;;;;;17.40;11.23;;;12.90;99.90;;;;;;4993024;28;20454;-75
2021/04/03 06:08:31;;;;;;;21.90;12.48;;;13.10;99.90;;;;;;4975431;28;20600;-74
2021/04/03 06:11:23;;;;;;;20.05;11.88;;;13.40;99.90;;;;;;4989466;28;20041;-77
2021/04/03 06:14:00;;;;;;;24.13;11.88;;;13.40;99.90;;;;;;4994782;28;20474;-75
2021/04/03 06:16:37;;;;;;;25.90;12.32;;;13.70;99.90;;;;;;4992650;28;20036;-75
2021/04/03 06:19:23;;;;;;;17.73;11.20;;;13.90;99.90;;;;;;4975567;28;20031;-79
2021/04/03 06:21:52;;;;;;;22.60;12.35;;;13.90;99.90;;;;;;4991593;28;20026;-75
2021/04/03 06:24:29;;;;;;;19.63;11.88;;;13.80;99.90;;;;;;4970653;28;20030;-79
2021/04/03 06:27:02;;;;;;;17.60;11.27;;;13.80;99.90;;;;;;4992817;28;20474;-78
2021/04/03 06:29:29;;;;;;;18.38;11.70;;;13.80;99.90;;;;;;5009724;28;20045;-78
2021/04/03 06:31:58;;;;;;;18.00;12.20;;;13.80;99.90;;;;;;5012520;28;20028;-75
2021/04/03 06:34:29;;;;;;;19.42;11.73;;;13.40;99.90;;;;;;5011991;28;20038;-78
2021/04/03 06:36:55;;;;;;;75.50;46.33;;;13.90;99.90;;;;;;4980934;28;20035;-77
2021/04/03 06:39:21;;;;;;;27.88;15.98;;;14.10;99.90;;;;;;4981140;28;20023;-76
2021/04/03 06:41:50;;;;;;;27.33;16.95;;;14.00;99.90;;;;;;4978885;28;20050;-78
2021/04/03 06:44:16;;;;;;;57.78;35.42;;;13.70;99.90;;;;;;4973550;28;20034;-78
2021/04/03 06:46:45;;;;;;;91.75;55.50;;;14.10;99.90;;;;;;4973142;28;20063;-78
2021/04/03 06:49:12;;;;;;;32.03;19.77;;;14.20;99.90;;;;;;4989322;28;20030;-79
2021/04/03 06:51:38;;;;;;;27.10;17.90;;;14.20;99.90;;;;;;4959185;28;20553;-77
2021/04/03 06:54:07;;;;;;;24.17;15.45;;;14.40;99.90;;;;;;4992950;28;20034;-81
2021/04/03 06:56:34;;;;;;;22.60;13.70;;;14.70;99.90;;;;;;4992726;28;20113;-79
2021/04/03 06:59:04;;;;;;;23.77;14.15;;;14.60;99.90;;;;;;4975755;28;20385;-82
2021/04/03 07:01:50;;;;;;;22.85;13.20;;;14.50;99.90;;;;;;4993242;28;20367;-81
2021/04/03 07:04:26;;;;;;;23.00;13.48;;;14.70;99.90;;;;;;4992870;28;20034;-81
2021/04/03 07:06:53;;;;;;;18.55;12.23;;;14.70;99.90;;;;;;4992786;28;20057;-81
2021/04/03 07:09:20;;;;;;;20.40;12.52;;;14.90;99.90;;;;;;4992492;28;20080;-81
2021/04/03 07:11:48;;;;;;;18.83;12.20;;;14.80;99.90;;;;;;4993160;28;20027;-80
2021/04/03 07:14:16;;;;;;;17.30;12.48;;;14.80;99.90;;;;;;5004235;28;20060;-77
2021/04/03 07:16:44;;;;;;;22.83;12.77;;;15.20;99.90;;;;;;5011700;28;20037;-79
2021/04/03 07:19:11;;;;;;;18.63;12.10;;;15.30;99.90;;;;;;5011827;28;20022;-80
2021/04/03 07:21:37;;;;;;;50.55;32.72;;;15.50;99.90;;;;;;4994240;28;20413;-80
2021/04/03 07:24:04;;;;;;;115.90;67.13;;;15.40;99.90;;;;;;5011733;28;20516;-78
2021/04/03 07:26:30;;;;;;;36.20;24.88;;;15.30;99.90;;;;;;5011732;28;20071;-79
2021/04/03 07:28:56;;;;;;;20.35;13.85;;;15.30;99.90;;;;;;5012151;28;20377;-79
2021/04/03 07:31:47;;;;;;;23.75;13.40;;;14.70;99.90;;;;;;5011154;28;20462;-76
2021/04/03 07:34:13;;;;;;;22.25;12.43;;;14.80;99.90;;;;;;5011131;28;20021;-81
2021/04/03 07:36:41;;;;;;;19.10;12.38;;;14.90;99.90;;;;;;5011462;28;20024;-78
2021/04/03 07:39:36;;;;;;;17.40;12.07;;;15.10;99.90;;;;;;5011747;28;20101;-76
2021/04/03 07:42:04;;;;;;;22.52;12.38;;;15.30;99.90;;;;;;5011181;28;20419;-77
2021/04/03 07:44:37;;;;;;;17.85;12.50;;;15.30;99.90;;;;;;5011173;28;20030;-78
2021/04/03 07:47:22;;;;;;;21.58;11.68;;;15.30;99.90;;;;;;5010972;28;20121;-78
2021/04/03 07:49:48;;;;;;;15.85;10.60;;;15.40;99.90;;;;;;5011331;28;20382;-79
2021/04/03 07:52:14;;;;;;;17.55;12.43;;;15.60;99.90;;;;;;5010733;28;20476;-77
2021/04/03 07:54:41;;;;;;;15.20;10.88;;;15.60;99.90;;;;;;5011746;28;20088;-80
2021/04/03 07:57:10;;;;;;;15.63;10.52;;;15.80;99.90;;;;;;5011763;28;20058;-78
2021/04/03 07:59:47;;;;;;;16.58;9.95;;;15.70;99.90;;;;;;5011051;28;20065;-78
2021/04/03 08:02:17;;;;;;;13.95;8.65;;;15.80;99.90;;;;;;5011044;28;20026;-78
2021/04/03 08:04:43;;;;;;;;;;;16.00;99.90;;;;;;4994109;28;20433;-77
2021/04/03 08:07:10;;;;;;;11.68;7.97;;;16.10;99.90;;;;;;5011258;28;19913;-77
2021/04/03 08:09:36;;;;;;;10.27;7.68;;;16.30;99.90;;;;;;5011109;28;20026;-80
2021/04/03 08:12:04;;;;;;;26.50;15.57;;;16.30;99.90;;;;;;5011507;28;20117;-79
2021/04/03 08:14:32;;;;;;;23.13;15.82;;;16.80;99.90;;;;;;4999327;28;20052;-82
2021/04/03 08:16:59;;;;;;;35.05;23.02;;;17.10;99.90;;;;;;4995451;28;20026;-80
2021/04/03 08:19:35;;;;;;;18.42;11.65;;;17.70;99.90;;;;;;4995274;28;20553;-78
2021/04/03 08:22:01;;;;;;;17.05;9.40;;;17.60;98.70;;;;;;4995482;28;20019;-77
2021/04/03 08:24:28;;;;;;;15.35;9.07;;;17.50;99.20;;;;;;4995437;28;20077;-76
2021/04/03 08:26:54;;;;;;;12.45;9.05;;;17.40;99.10;;;;;;4995562;28;20030;-80
2021/04/03 08:29:24;;;;;;;15.20;8.98;;;17.70;99.10;;;;;;4994958;28;20049;-79
2021/04/03 08:31:51;;;;;;;15.70;7.65;;;18.20;98.90;;;;;;4994849;28;20054;-78
2021/04/03 08:34:18;;;;;;;16.33;7.53;;;18.20;97.40;;;;;;4994918;28;20398;-79
2021/04/03 08:36:45;;;;;;;13.27;8.32;;;18.20;97.80;;;;;;4995072;28;20030;-80
2021/04/03 08:39:12;;;;;;;11.50;7.38;;;18.20;97.00;;;;;;4995327;28;20054;-77
2021/04/03 08:41:41;;;;;;;11.18;7.40;;;18.20;96.70;;;;;;4999360;28;20113;-80
2021/04/03 08:44:17;;;;;;;16.80;8.55;;;18.30;96.20;;;;;;5005787;28;20771;-80
2021/04/03 08:46:46;;;;;;;9.45;7.00;;;17.90;97.00;;;;;;5014340;28;20065;-80
2021/04/03 08:49:12;;;;;;;14.32;7.82;;;18.10;97.20;;;;;;4996610;28;20080;-78
2021/04/03 08:51:38;;;;;;;14.35;7.03;;;18.00;97.40;;;;;;5003614;28;20030;-79
2021/04/03 08:54:05;;;;;;;14.30;7.40;;;17.90;97.60;;;;;;4993499;28;20030;-78
2021/04/03 08:56:35;;;;;;;9.75;6.90;;;17.80;97.80;;;;;;4994230;28;20030;-81
2021/04/03 08:59:12;;;;;;;;;;;17.70;97.70;;;;;;4991196;28;20026;-77
2021/04/03 09:01:42;;;;;;;15.15;6.38;;;17.80;98.40;;;;;;4993745;28;19910;-78
2021/04/03 09:04:11;;;;;;;10.02;6.75;;;18.20;97.40;;;;;;4993855;28;20026;-82
2021/04/03 09:06:45;;;;;;;12.02;6.85;;;18.50;96.70;;;;;;4993304;28;20040;-76
2021/04/03 09:09:19;;;;;;;11.70;7.65;;;18.60;96.50;;;;;;4992384;28;20038;-80
2021/04/03 09:12:10;;;;;;;10.95;7.30;;;18.50;95.80;;;;;;4991600;28;20018;-77
2021/04/03 09:14:49;;;;;;;18.63;7.43;;;18.70;97.50;;;;;;4981517;28;20046;-76
2021/04/03 09:17:24;;;;;;;14.55;9.45;;;18.90;96.30;;;;;;4992418;28;20026;-75
2021/04/03 09:19:52;;;;;;;51.85;36.45;;;19.00;94.80;;;;;;4989251;28;20472;-78
2021/04/03 09:22:21;;;;;;;27.67;17.88;;;19.10;94.70;;;;;;4992195;28;20034;-76
2021/04/03 09:24:59;;;;;;;22.33;16.00;;;19.10;93.80;;;;;;4973011;28;20030;-78
2021/04/03 09:27:28;;;;;;;17.88;11.45;;;18.90;94.60;;;;;;4993006;28;20421;-77
2021/04/03 09:30:23;;;;;;;15.65;9.13;;;19.10;94.50;;;;;;4993721;28;20379;-77
2021/04/03 09:33:21;;;;;;;13.23;7.93;;;19.10;93.50;;;;;;4972841;28;20097;-78
2021/04/03 09:35:49;;;;;;;12.32;7.80;;;18.90;93.40;;;;;;4990175;28;20105;-78
2021/04/03 09:38:29;;;;;;;16.02;9.38;;;18.90;93.90;;;;;;4974934;28;20038;-77
2021/04/03 09:41:00;;;;;;;15.27;8.48;;;19.70;94.40;;;;;;4991927;28;20022;-77
2021/04/03 09:43:42;;;;;;;11.45;7.13;;;20.50;92.00;;;;;;4992703;28;20117;-79
2021/04/03 09:46:09;;;;;;;12.45;7.28;;;20.50;88.80;;;;;;4987298;28;20101;-79
2021/04/03 09:48:35;;;;;;;9.65;7.15;;;20.50;89.70;;;;;;4980218;28;20066;-80
2021/04/03 09:51:10;;;;;;;10.73;7.05;;;20.80;86.80;;;;;;4975802;28;20038;-79
2021/04/03 09:53:40;;;;;;;11.52;7.07;;;21.10;86.90;;;;;;4969901;28;20088;-76
2021/04/03 09:56:11;;;;;;;9.80;6.22;;;21.60;83.30;;;;;;4970544;28;20062;-78
2021/04/03 09:58:40;;;;;;;11.77;6.40;;;21.80;80.80;;;;;;4975142;28;20118;-80
2021/04/03 10:01:13;;;;;;;10.00;5.80;;;21.80;79.10;;;;;;4976175;28;20046;-78
2021/04/03 10:03:43;;;;;;;11.23;6.35;;;22.10;77.50;;;;;;4992925;28;20105;-77
2021/04/03 10:06:10;;;;;;;11.70;5.53;;;22.40;77.20;;;;;;4975905;28;20050;-77
2021/04/03 10:08:39;;;;;;;10.48;5.68;;;22.20;71.40;;;;;;4974778;28;20343;-79
2021/04/03 10:11:12;;;;;;;9.23;5.10;;;22.20;71.40;;;;;;4993084;28;20041;-76
2021/04/03 10:13:46;;;;;;;11.07;5.10;;;22.40;69.90;;;;;;4987382;28;20084;-77
2021/04/03 10:16:13;;;;;;;8.85;5.55;;;22.80;66.70;;;;;;4997101;28;20070;-81
2021/04/03 10:18:43;;;;;;;10.20;4.90;;;23.30;68.20;;;;;;4975241;28;20034;-81
2021/04/03 10:21:10;;;;;;;24.08;16.40;;;23.60;65.50;;;;;;4976389;28;20411;-78
2021/04/03 10:23:37;;;;;;;90.43;67.18;;;23.40;63.30;;;;;;4992879;28;20169;-78
2021/04/03 10:26:16;;;;;;;36.13;23.75;;;24.00;64.20;;;;;;4933379;28;20040;-82
2021/04/03 10:28:44;;;;;;;24.83;14.60;;;24.10;60.90;;;;;;4979955;28;20030;-77
2021/04/03 10:31:14;;;;;;;26.83;14.30;;;23.30;60.30;;;;;;4971671;28;20057;-86
2021/04/03 10:33:46;;;;;;;11.93;7.25;;;23.30;60.80;;;;;;4973159;28;20038;-80
2021/04/03 10:36:13;;;;;;;9.70;5.63;;;22.90;60.70;;;;;;4979728;28;20030;-84
2021/04/03 10:38:47;;;;;;;10.23;6.00;;;23.20;59.90;;;;;;4960051;28;20027;-77
2021/04/03 10:41:16;;;;;;;9.98;4.68;;;23.70;59.90;;;;;;4982300;28;20039;-77
2021/04/03 10:43:42;;;;;;;10.60;5.47;;;24.20;58.50;;;;;;4973950;28;20027;-82
2021/04/03 10:46:08;;;;;;;7.20;4.20;;;24.00;57.70;;;;;;4991911;28;20490;-77
2021/04/03 10:48:35;;;;;;;6.45;4.38;;;24.10;56.50;;;;;;4992558;28;20044;-79
2021/04/03 10:51:01;;;;;;;7.40;3.70;;;24.40;55.40;;;;;;4992020;28;20386;-76
2021/04/03 10:53:27;;;;;;;8.95;4.35;;;24.20;56.20;;;;;;4991812;28;20030;-80
2021/04/03 10:55:53;;;;;;;11.38;4.85;;;24.30;56.10;;;;;;4992836;28;20458;-79
2021/04/03 10:58:19;;;;;;;8.13;3.85;;;24.70;55.60;;;;;;4992013;28;20042;-79
2021/04/03 11:00:45;;;;;;;7.18;4.03;;;24.70;54.70;;;;;;4992641;28;20088;-81
2021/04/03 11:03:11;;;;;;;5.15;3.50;;;24.80;53.20;;;;;;4993208;28;20030;-79
2021/04/03 11:05:37;;;;;;;6.97;4.55;;;24.90;54.20;;;;;;4993112;28;20030;-78
2021/04/03 11:08:06;;;;;;;33.42;24.13;;;25.50;54.70;;;;;;4992170;28;20144;-77
2021/04/03 11:10:32;;;;;;;20.40;13.57;;;25.30;53.60;;;;;;4993197;28;20068;-83
2021/04/03 11:12:58;;;;;;;8.27;5.10;;;25.30;52.70;;;;;;4997829;28;20077;-81
2021/04/03 11:15:24;;;;;;;7.05;4.05;;;24.80;52.70;;;;;;5012286;28;20018;-79
2021/04/03 11:17:53;;;;;;;6.68;4.00;;;23.50;53.80;;;;;;5012520;28;20434;-79
2021/04/03 11:20:20;;;;;;;9.30;4.40;;;23.00;54.90;;;;;;4994991;28;20026;-80
2021/04/03 11:22:46;;;;;;;6.80;4.05;;;23.00;54.80;;;;;;5011922;28;20018;-82
2021/04/03 11:25:13;;;;;;;6.50;3.35;;;22.60;54.20;;;;;;4978143;28;20125;-80
2021/04/03 11:27:42;;;;;;;7.18;3.10;;;22.60;53.00;;;;;;4992130;28;20393;-78
2021/04/03 11:30:15;;;;;;;6.20;3.40;;;22.60;52.40;;;;;;4974659;28;20037;-80
2021/04/03 11:32:45;;;;;;;9.18;3.97;;;22.30;53.30;;;;;;4992583;28;20429;-82
2021/04/03 11:35:13;;;;;;;7.80;3.65;;;22.40;53.60;;;;;;4992297;28;20052;-82
2021/04/03 11:37:39;;;;;;;6.40;3.45;;;22.30;52.70;;;;;;4992166;28;20066;-79
2021/04/03 11:40:06;;;;;;;8.75;3.88;;;22.30;53.10;;;;;;4992109;28;20069;-80
2021/04/03 11:42:32;;;;;;;8.73;4.13;;;22.20;53.90;;;;;;4992165;28;20026;-80
2021/04/03 11:44:58;;;;;;;9.55;3.40;;;22.00;54.80;;;;;;4991097;28;20042;-77
2021/04/03 11:47:27;;;;;;;6.57;4.03;;;21.90;55.00;;;;;;4992233;28;20097;-78
2021/04/03 11:49:57;;;;;;;8.05;3.67;;;22.10;55.20;;;;;;4993678;28;20018;-78
2021/04/03 11:52:24;;;;;;;6.93;3.45;;;22.10;55.00;;;;;;4996284;28;20492;-81
2021/04/03 11:54:51;;;;;;;9.43;3.80;;;22.30;55.80;;;;;;4996056;28;20443;-87
2021/04/03 11:57:17;;;;;;;8.50;3.92;;;22.60;55.60;;;;;;4991816;28;20035;-78
2021/04/03 11:59:44;;;;;;;13.18;5.55;;;22.70;55.50;;;;;;4991476;28;20122;-79
2021/04/03 12:02:11;;;;;;;15.38;8.38;;;22.70;56.20;;;;;;4995988;28;20027;-81
2021/04/03 12:04:37;;;;;;;14.15;8.93;;;22.90;55.80;;;;;;4978537;28;20486;-81
2021/04/03 12:07:04;;;;;;;16.77;11.77;;;22.90;56.10;;;;;;4995732;28;20042;-81
2021/04/03 12:09:30;;;;;;;15.32;10.18;;;22.80;55.40;;;;;;4992754;28;20105;-79
2021/04/03 12:11:55;;;;;;;68.63;47.17;;;23.30;56.00;;;;;;4977887;28;20438;-81
2021/04/03 12:14:21;;;;;;;17.40;11.50;;;23.30;54.80;;;;;;4996932;28;20053;-85
2021/04/03 12:17:15;;;;;;;10.45;4.63;;;23.10;54.60;;;;;;4978560;28;20044;-85
2021/04/03 12:19:41;;;;;;;10.15;4.10;;;23.00;54.80;;;;;;4996271;28;20038;-84
2021/04/03 12:22:07;;;;;;;7.75;5.03;;;23.70;54.90;;;;;;4996072;28;20026;-84
2021/04/03 12:24:32;;;;;;;6.95;4.00;;;23.40;52.50;;;;;;4995453;28;20101;-80
2021/04/03 12:26:58;;;;;;;8.07;4.85;;;24.10;53.90;;;;;;4995838;28;20053;-85
2021/04/03 12:29:24;;;;;;;6.30;4.43;;;24.90;53.00;;;;;;4995900;28;20048;-84
2021/04/03 12:31:50;;;;;;;16.23;11.10;;;24.00;52.60;;;;;;4994729;28;20026;-85
2021/04/03 12:34:15;;;;;;;32.63;21.95;;;23.50;52.10;;;;;;4978002;28;20082;-83
2021/04/03 12:36:41;;;;;;;31.88;22.58;;;23.90;52.30;;;;;;4975938;28;20027;-84
2021/04/03 12:39:09;;;;;;;9.45;4.70;;;24.00;52.20;;;;;;4975955;28;20023;-85
2021/04/03 12:41:35;;;;;;;7.78;3.92;;;24.20;50.70;;;;;;4976591;28;20023;-83